Terminal Aerodrome Forecast
Issued by NWS

Home | Current Version | Previous Version | Text Only | Print | Product List | Glossary On
Versions: 1 2 3 4 5 6 7 8 9 10 11 12 13 14 15 16 17 18 19 20 21 22 23 24 25 26 27 28 29 30 31 32
000
FTAK31 PAFA 281732
TAFAUN
TAF
PAUN 281732Z 2818/2918 08025G31KT 6SM -SN BLSN OVC050
     FM282000 10023G30KT 6SM -SN BLSN OVC025
     FM290300 09027G37KT 3SM -SN BLSN BKN015 OVC035
     FM290600 09035G45KT 2SM -SN BLSN BKN015 OVC025
     FM290900 09035G45KT 1SM -SN BLSN OVC015=

USA.gov is the U.S. government's official web portal to all federal, state and local government web resources and services.